sensor_id;sensor_type;location;lat;lon;timestamp;P1;durP1;ratioP1;P2;durP2;ratioP2
25531;SDS011;13429;48.816;9.118;2022-08-01T00:01:56;3.22;;;2.03;;
25531;SDS011;13429;48.816;9.118;2022-08-01T00:04:22;3.67;;;1.95;;
25531;SDS011;13429;48.816;9.118;2022-08-01T00:06:48;2.72;;;2.15;;
25531;SDS011;13429;48.816;9.118;2022-08-01T00:09:14;3.00;;;2.13;;
25531;SDS011;13429;48.816;9.118;2022-08-01T00:11:40;3.63;;;2.13;;
25531;SDS011;13429;48.816;9.118;2022-08-01T00:14:07;2.88;;;1.98;;
25531;SDS011;13429;48.816;9.118;2022-08-01T00:16:34;2.92;;;2.22;;
25531;SDS011;13429;48.816;9.118;2022-08-01T00:19:00;2.47;;;1.90;;
25531;SDS011;13429;48.816;9.118;2022-08-01T00:21:26;3.47;;;1.95;;
25531;SDS011;13429;48.816;9.118;2022-08-01T00:23:52;3.85;;;1.75;;
25531;SDS011;13429;48.816;9.118;2022-08-01T00:26:18;4.28;;;2.00;;
25531;SDS011;13429;48.816;9.118;2022-08-01T00:28:44;3.05;;;2.13;;
25531;SDS011;13429;48.816;9.118;2022-08-01T00:31:10;2.50;;;2.10;;
25531;SDS011;13429;48.816;9.118;2022-08-01T00:33:36;2.60;;;2.13;;
25531;SDS011;13429;48.816;9.118;2022-08-01T00:36:02;4.10;;;2.47;;
25531;SDS011;13429;48.816;9.118;2022-08-01T00:38:28;5.35;;;2.20;;
25531;SDS011;13429;48.816;9.118;2022-08-01T00:40:54;2.38;;;1.90;;
25531;SDS011;13429;48.816;9.118;2022-08-01T00:43:20;5.35;;;2.20;;
25531;SDS011;13429;48.816;9.118;2022-08-01T00:45:46;3.00;;;2.00;;
25531;SDS011;13429;48.816;9.118;2022-08-01T00:48:12;4.03;;;1.92;;
25531;SDS011;13429;48.816;9.118;2022-08-01T00:50:38;7.75;;;2.47;;
25531;SDS011;13429;48.816;9.118;2022-08-01T00:53:04;2.53;;;1.85;;
25531;SDS011;13429;48.816;9.118;2022-08-01T00:55:30;2.70;;;2.33;;
25531;SDS011;13429;48.816;9.118;2022-08-01T00:57:57;3.58;;;2.42;;
25531;SDS011;13429;48.816;9.118;2022-08-01T01:00:23;4.43;;;2.38;;
25531;SDS011;13429;48.816;9.118;2022-08-01T01:02:50;4.63;;;2.38;;
25531;SDS011;13429;48.816;9.118;2022-08-01T01:05:16;2.45;;;1.95;;
25531;SDS011;13429;48.816;9.118;2022-08-01T01:07:59;3.22;;;2.30;;
25531;SDS011;13429;48.816;9.118;2022-08-01T01:10:32;3.15;;;2.33;;
25531;SDS011;13429;48.816;9.118;2022-08-01T01:13:23;3.40;;;2.30;;
25531;SDS011;13429;48.816;9.118;2022-08-01T01:15:51;3.15;;;2.28;;
25531;SDS011;13429;48.816;9.118;2022-08-01T01:20:48;3.13;;;1.90;;
25531;SDS011;13429;48.816;9.118;2022-08-01T01:26:09;4.35;;;2.15;;
25531;SDS011;13429;48.816;9.118;2022-08-01T01:31:22;3.17;;;2.03;;
25531;SDS011;13429;48.816;9.118;2022-08-01T01:33:50;2.67;;;2.17;;
25531;SDS011;13429;48.816;9.118;2022-08-01T01:36:17;3.35;;;2.10;;
25531;SDS011;13429;48.816;9.118;2022-08-01T01:38:44;3.83;;;2.50;;
25531;SDS011;13429;48.816;9.118;2022-08-01T01:41:11;2.78;;;1.70;;
25531;SDS011;13429;48.816;9.118;2022-08-01T01:43:37;2.97;;;2.05;;
25531;SDS011;13429;48.816;9.118;2022-08-01T01:46:03;3.47;;;2.50;;
25531;SDS011;13429;48.816;9.118;2022-08-01T01:48:30;3.20;;;2.03;;
25531;SDS011;13429;48.816;9.118;2022-08-01T01:50:56;3.63;;;2.10;;
25531;SDS011;13429;48.816;9.118;2022-08-01T01:53:23;3.60;;;2.38;;
25531;SDS011;13429;48.816;9.118;2022-08-01T01:55:50;4.28;;;2.35;;
25531;SDS011;13429;48.816;9.118;2022-08-01T01:58:17;2.55;;;1.90;;
25531;SDS011;13429;48.816;9.118;2022-08-01T02:00:45;3.75;;;2.45;;
25531;SDS011;13429;48.816;9.118;2022-08-01T02:03:12;2.45;;;2.25;;
25531;SDS011;13429;48.816;9.118;2022-08-01T02:05:39;4.85;;;2.55;;
25531;SDS011;13429;48.816;9.118;2022-08-01T02:08:07;3.67;;;2.10;;
25531;SDS011;13429;48.816;9.118;2022-08-01T02:10:33;4.97;;;2.38;;
25531;SDS011;13429;48.816;9.118;2022-08-01T02:13:00;4.50;;;2.35;;
25531;SDS011;13429;48.816;9.118;2022-08-01T02:15:28;3.67;;;2.55;;
25531;SDS011;13429;48.816;9.118;2022-08-01T02:17:55;6.50;;;2.55;;
25531;SDS011;13429;48.816;9.118;2022-08-01T02:20:21;3.38;;;2.47;;
25531;SDS011;13429;48.816;9.118;2022-08-01T02:22:49;3.38;;;2.45;;
25531;SDS011;13429;48.816;9.118;2022-08-01T02:25:23;3.20;;;2.22;;
25531;SDS011;13429;48.816;9.118;2022-08-01T02:30:26;4.15;;;2.15;;
25531;SDS011;13429;48.816;9.118;2022-08-01T02:35:29;5.00;;;2.50;;
25531;SDS011;13429;48.816;9.118;2022-08-01T02:37:56;3.10;;;2.35;;
25531;SDS011;13429;48.816;9.118;2022-08-01T02:40:23;4.10;;;2.47;;
25531;SDS011;13429;48.816;9.118;2022-08-01T02:42:50;5.22;;;2.88;;
25531;SDS011;13429;48.816;9.118;2022-08-01T02:45:17;4.13;;;2.40;;
25531;SDS011;13429;48.816;9.118;2022-08-01T02:47:43;3.63;;;2.47;;
25531;SDS011;13429;48.816;9.118;2022-08-01T02:50:10;6.78;;;2.80;;
25531;SDS011;13429;48.816;9.118;2022-08-01T02:52:37;3.67;;;2.55;;
25531;SDS011;13429;48.816;9.118;2022-08-01T02:55:05;5.07;;;2.75;;
25531;SDS011;13429;48.816;9.118;2022-08-01T02:57:32;3.88;;;2.47;;
25531;SDS011;13429;48.816;9.118;2022-08-01T02:59:59;3.20;;;2.33;;
25531;SDS011;13429;48.816;9.118;2022-08-01T03:02:26;3.42;;;2.20;;
25531;SDS011;13429;48.816;9.118;2022-08-01T03:04:52;3.00;;;2.20;;
25531;SDS011;13429;48.816;9.118;2022-08-01T03:07:18;3.92;;;2.30;;
25531;SDS011;13429;48.816;9.118;2022-08-01T03:09:45;3.45;;;2.45;;
25531;SDS011;13429;48.816;9.118;2022-08-01T03:12:16;3.63;;;2.42;;
25531;SDS011;13429;48.816;9.118;2022-08-01T03:14:44;3.03;;;2.30;;
25531;SDS011;13429;48.816;9.118;2022-08-01T03:17:10;3.33;;;2.50;;
25531;SDS011;13429;48.816;9.118;2022-08-01T03:19:36;3.33;;;2.53;;
25531;SDS011;13429;48.816;9.118;2022-08-01T03:22:05;3.55;;;2.30;;
25531;SDS011;13429;48.816;9.118;2022-08-01T03:24:31;4.55;;;2.80;;
25531;SDS011;13429;48.816;9.118;2022-08-01T03:26:59;4.72;;;2.00;;
25531;SDS011;13429;48.816;9.118;2022-08-01T03:29:27;4.22;;;2.50;;
25531;SDS011;13429;48.816;9.118;2022-08-01T03:31:54;4.97;;;2.42;;
25531;SDS011;13429;48.816;9.118;2022-08-01T03:34:21;2.95;;;2.28;;
25531;SDS011;13429;48.816;9.118;2022-08-01T03:39:55;4.47;;;2.40;;
25531;SDS011;13429;48.816;9.118;2022-08-01T03:42:24;4.95;;;2.50;;
25531;SDS011;13429;48.816;9.118;2022-08-01T03:44:54;3.42;;;2.08;;
25531;SDS011;13429;48.816;9.118;2022-08-01T03:47:21;5.72;;;3.03;;
25531;SDS011;13429;48.816;9.118;2022-08-01T03:49:48;4.00;;;2.40;;
25531;SDS011;13429;48.816;9.118;2022-08-01T03:52:17;3.38;;;2.33;;
25531;SDS011;13429;48.816;9.118;2022-08-01T03:54:45;2.85;;;2.45;;
25531;SDS011;13429;48.816;9.118;2022-08-01T03:57:12;4.07;;;2.35;;
25531;SDS011;13429;48.816;9.118;2022-08-01T03:59:38;2.05;;;1.63;;
25531;SDS011;13429;48.816;9.118;2022-08-01T04:02:06;2.90;;;2.10;;
25531;SDS011;13429;48.816;9.118;2022-08-01T04:04:32;4.20;;;2.38;;
25531;SDS011;13429;48.816;9.118;2022-08-01T04:06:59;4.75;;;2.10;;
25531;SDS011;13429;48.816;9.118;2022-08-01T04:09:29;2.90;;;2.15;;
25531;SDS011;13429;48.816;9.118;2022-08-01T04:11:56;2.65;;;2.13;;
25531;SDS011;13429;48.816;9.118;2022-08-01T04:14:22;4.45;;;2.50;;
25531;SDS011;13429;48.816;9.118;2022-08-01T04:16:48;4.03;;;2.03;;
25531;SDS011;13429;48.816;9.118;2022-08-01T04:19:15;3.97;;;2.25;;
25531;SDS011;13429;48.816;9.118;2022-08-01T04:21:40;4.25;;;2.08;;
25531;SDS011;13429;48.816;9.118;2022-08-01T04:24:09;4.55;;;2.75;;
25531;SDS011;13429;48.816;9.118;2022-08-01T04:26:37;2.78;;;2.15;;
25531;SDS011;13429;48.816;9.118;2022-08-01T04:29:05;3.53;;;1.80;;
25531;SDS011;13429;48.816;9.118;2022-08-01T04:31:32;2.75;;;1.85;;
25531;SDS011;13429;48.816;9.118;2022-08-01T04:33:59;3.03;;;1.95;;
25531;SDS011;13429;48.816;9.118;2022-08-01T04:36:26;4.68;;;2.50;;
25531;SDS011;13429;48.816;9.118;2022-08-01T04:38:54;2.80;;;2.03;;
25531;SDS011;13429;48.816;9.118;2022-08-01T04:41:21;3.45;;;1.95;;
25531;SDS011;13429;48.816;9.118;2022-08-01T04:43:48;4.40;;;2.67;;
25531;SDS011;13429;48.816;9.118;2022-08-01T04:46:16;6.50;;;2.05;;
25531;SDS011;13429;48.816;9.118;2022-08-01T04:48:42;2.70;;;1.85;;
25531;SDS011;13429;48.816;9.118;2022-08-01T04:51:13;4.75;;;2.25;;
25531;SDS011;13429;48.816;9.118;2022-08-01T04:53:40;2.67;;;1.77;;
25531;SDS011;13429;48.816;9.118;2022-08-01T04:56:06;4.35;;;1.95;;
25531;SDS011;13429;48.816;9.118;2022-08-01T04:58:32;3.20;;;1.98;;
25531;SDS011;13429;48.816;9.118;2022-08-01T05:00:58;2.40;;;1.80;;
25531;SDS011;13429;48.816;9.118;2022-08-01T05:03:24;3.10;;;1.35;;
25531;SDS011;13429;48.816;9.118;2022-08-01T05:05:50;3.60;;;1.98;;
25531;SDS011;13429;48.816;9.118;2022-08-01T05:08:16;2.97;;;1.95;;
25531;SDS011;13429;48.816;9.118;2022-08-01T05:10:42;2.65;;;1.45;;
25531;SDS011;13429;48.816;9.118;2022-08-01T05:13:08;5.82;;;1.65;;
25531;SDS011;13429;48.816;9.118;2022-08-01T05:15:34;4.53;;;1.85;;
25531;SDS011;13429;48.816;9.118;2022-08-01T05:18:03;3.05;;;2.10;;
25531;SDS011;13429;48.816;9.118;2022-08-01T05:20:29;1.98;;;1.67;;
25531;SDS011;13429;48.816;9.118;2022-08-01T05:22:56;3.10;;;2.17;;
25531;SDS011;13429;48.816;9.118;2022-08-01T05:25:22;3.13;;;1.50;;
25531;SDS011;13429;48.816;9.118;2022-08-01T05:27:48;2.75;;;2.00;;
25531;SDS011;13429;48.816;9.118;2022-08-01T05:30:14;6.53;;;2.08;;
25531;SDS011;13429;48.816;9.118;2022-08-01T05:32:41;3.45;;;1.90;;
25531;SDS011;13429;48.816;9.118;2022-08-01T05:35:07;3.35;;;1.80;;
25531;SDS011;13429;48.816;9.118;2022-08-01T05:37:33;3.63;;;1.70;;
25531;SDS011;13429;48.816;9.118;2022-08-01T05:39:59;2.38;;;1.48;;
25531;SDS011;13429;48.816;9.118;2022-08-01T05:42:25;5.70;;;2.10;;
25531;SDS011;13429;48.816;9.118;2022-08-01T05:44:51;4.30;;;1.75;;
25531;SDS011;13429;48.816;9.118;2022-08-01T05:47:17;4.60;;;1.90;;
25531;SDS011;13429;48.816;9.118;2022-08-01T05:49:44;5.15;;;1.95;;
25531;SDS011;13429;48.816;9.118;2022-08-01T05:52:10;3.08;;;1.65;;
25531;SDS011;13429;48.816;9.118;2022-08-01T05:54:36;4.03;;;1.90;;
25531;SDS011;13429;48.816;9.118;2022-08-01T05:57:02;2.97;;;1.60;;
25531;SDS011;13429;48.816;9.118;2022-08-01T05:59:28;2.70;;;1.63;;
25531;SDS011;13429;48.816;9.118;2022-08-01T06:01:55;2.30;;;1.70;;
25531;SDS011;13429;48.816;9.118;2022-08-01T06:04:21;7.80;;;1.95;;
25531;SDS011;13429;48.816;9.118;2022-08-01T06:06:47;2.53;;;1.58;;
25531;SDS011;13429;48.816;9.118;2022-08-01T06:09:13;2.60;;;1.75;;
25531;SDS011;13429;48.816;9.118;2022-08-01T06:11:39;2.00;;;1.20;;
25531;SDS011;13429;48.816;9.118;2022-08-01T06:14:05;4.75;;;1.58;;
25531;SDS011;13429;48.816;9.118;2022-08-01T06:16:31;1.95;;;1.05;;
25531;SDS011;13429;48.816;9.118;2022-08-01T06:18:56;4.32;;;1.58;;
25531;SDS011;13429;48.816;9.118;2022-08-01T06:21:22;2.35;;;1.17;;
25531;SDS011;13429;48.816;9.118;2022-08-01T06:23:48;4.38;;;1.70;;
25531;SDS011;13429;48.816;9.118;2022-08-01T06:26:17;4.75;;;1.60;;
25531;SDS011;13429;48.816;9.118;2022-08-01T06:28:43;2.58;;;1.45;;
25531;SDS011;13429;48.816;9.118;2022-08-01T06:31:09;2.95;;;1.70;;
25531;SDS011;13429;48.816;9.118;2022-08-01T06:33:37;1.83;;;1.25;;
25531;SDS011;13429;48.816;9.118;2022-08-01T06:36:03;1.60;;;1.35;;
25531;SDS011;13429;48.816;9.118;2022-08-01T06:38:29;3.05;;;1.40;;
25531;SDS011;13429;48.816;9.118;2022-08-01T06:40:55;2.08;;;1.48;;
25531;SDS011;13429;48.816;9.118;2022-08-01T06:43:21;2.50;;;1.38;;
25531;SDS011;13429;48.816;9.118;2022-08-01T06:45:47;2.85;;;1.60;;
25531;SDS011;13429;48.816;9.118;2022-08-01T06:48:13;3.92;;;1.20;;
25531;SDS011;13429;48.816;9.118;2022-08-01T06:50:40;3.17;;;1.20;;
25531;SDS011;13429;48.816;9.118;2022-08-01T06:53:06;2.05;;;1.13;;
25531;SDS011;13429;48.816;9.118;2022-08-01T06:55:32;7.38;;;1.27;;
25531;SDS011;13429;48.816;9.118;2022-08-01T06:57:58;2.28;;;1.30;;
25531;SDS011;13429;48.816;9.118;2022-08-01T07:00:24;1.70;;;0.90;;
25531;SDS011;13429;48.816;9.118;2022-08-01T07:02:51;7.30;;;1.20;;
25531;SDS011;13429;48.816;9.118;2022-08-01T07:05:18;1.75;;;0.93;;
25531;SDS011;13429;48.816;9.118;2022-08-01T07:07:44;2.28;;;1.20;;
25531;SDS011;13429;48.816;9.118;2022-08-01T07:10:10;4.18;;;1.23;;
25531;SDS011;13429;48.816;9.118;2022-08-01T07:12:36;6.63;;;1.35;;
25531;SDS011;13429;48.816;9.118;2022-08-01T07:15:06;1.77;;;1.02;;
25531;SDS011;13429;48.816;9.118;2022-08-01T07:17:36;1.27;;;1.10;;
25531;SDS011;13429;48.816;9.118;2022-08-01T07:20:03;3.85;;;0.95;;
25531;SDS011;13429;48.816;9.118;2022-08-01T07:22:29;3.53;;;1.55;;
25531;SDS011;13429;48.816;9.118;2022-08-01T07:24:55;3.03;;;1.23;;
25531;SDS011;13429;48.816;9.118;2022-08-01T07:27:21;3.10;;;1.27;;
25531;SDS011;13429;48.816;9.118;2022-08-01T07:29:47;2.85;;;1.10;;
25531;SDS011;13429;48.816;9.118;2022-08-01T07:32:12;2.97;;;1.33;;
25531;SDS011;13429;48.816;9.118;2022-08-01T07:34:38;5.45;;;1.48;;
25531;SDS011;13429;48.816;9.118;2022-08-01T07:37:04;3.15;;;1.40;;
25531;SDS011;13429;48.816;9.118;2022-08-01T07:39:31;2.53;;;1.42;;
25531;SDS011;13429;48.816;9.118;2022-08-01T07:41:57;1.48;;;1.27;;
25531;SDS011;13429;48.816;9.118;2022-08-01T07:44:23;3.08;;;1.40;;
25531;SDS011;13429;48.816;9.118;2022-08-01T07:46:49;5.10;;;1.35;;
25531;SDS011;13429;48.816;9.118;2022-08-01T07:49:15;3.45;;;1.20;;
25531;SDS011;13429;48.816;9.118;2022-08-01T07:51:41;2.08;;;1.60;;
25531;SDS011;13429;48.816;9.118;2022-08-01T07:54:06;3.05;;;1.20;;
25531;SDS011;13429;48.816;9.118;2022-08-01T07:56:32;2.78;;;1.38;;
25531;SDS011;13429;48.816;9.118;2022-08-01T07:58:58;2.13;;;1.42;;
25531;SDS011;13429;48.816;9.118;2022-08-01T08:01:24;4.03;;;1.50;;
25531;SDS011;13429;48.816;9.118;2022-08-01T08:03:51;1.20;;;1.10;;
25531;SDS011;13429;48.816;9.118;2022-08-01T08:06:17;2.15;;;1.17;;
25531;SDS011;13429;48.816;9.118;2022-08-01T08:08:43;4.38;;;1.30;;
25531;SDS011;13429;48.816;9.118;2022-08-01T08:11:09;3.10;;;1.40;;
25531;SDS011;13429;48.816;9.118;2022-08-01T08:13:35;4.63;;;1.35;;
25531;SDS011;13429;48.816;9.118;2022-08-01T08:16:01;1.67;;;0.93;;
25531;SDS011;13429;48.816;9.118;2022-08-01T08:18:27;2.45;;;1.33;;
25531;SDS011;13429;48.816;9.118;2022-08-01T08:20:53;2.45;;;1.23;;
25531;SDS011;13429;48.816;9.118;2022-08-01T08:23:19;4.88;;;1.50;;
25531;SDS011;13429;48.816;9.118;2022-08-01T08:26:04;3.03;;;1.45;;
25531;SDS011;13429;48.816;9.118;2022-08-01T08:28:29;2.33;;;1.20;;
25531;SDS011;13429;48.816;9.118;2022-08-01T08:30:56;2.35;;;1.20;;
25531;SDS011;13429;48.816;9.118;2022-08-01T08:33:22;3.08;;;1.45;;
25531;SDS011;13429;48.816;9.118;2022-08-01T08:35:48;8.55;;;1.33;;
25531;SDS011;13429;48.816;9.118;2022-08-01T08:38:14;8.38;;;2.17;;
25531;SDS011;13429;48.816;9.118;2022-08-01T08:40:40;4.55;;;2.10;;
25531;SDS011;13429;48.816;9.118;2022-08-01T08:43:06;3.88;;;2.58;;
25531;SDS011;13429;48.816;9.118;2022-08-01T08:45:33;3.17;;;2.42;;
25531;SDS011;13429;48.816;9.118;2022-08-01T08:47:59;2.85;;;2.42;;
25531;SDS011;13429;48.816;9.118;2022-08-01T08:50:26;4.10;;;3.00;;
25531;SDS011;13429;48.816;9.118;2022-08-01T08:52:56;4.05;;;2.83;;
25531;SDS011;13429;48.816;9.118;2022-08-01T08:55:24;6.07;;;4.05;;
25531;SDS011;13429;48.816;9.118;2022-08-01T08:57:50;6.90;;;4.25;;
25531;SDS011;13429;48.816;9.118;2022-08-01T09:00:17;8.18;;;4.70;;
25531;SDS011;13429;48.816;9.118;2022-08-01T09:02:44;9.55;;;4.88;;
25531;SDS011;13429;48.816;9.118;2022-08-01T09:05:11;6.10;;;4.60;;
25531;SDS011;13429;48.816;9.118;2022-08-01T09:07:37;7.93;;;5.72;;
25531;SDS011;13429;48.816;9.118;2022-08-01T09:10:04;10.73;;;6.13;;
25531;SDS011;13429;48.816;9.118;2022-08-01T09:12:30;7.05;;;4.55;;
25531;SDS011;13429;48.816;9.118;2022-08-01T09:14:56;3.50;;;2.80;;
25531;SDS011;13429;48.816;9.118;2022-08-01T09:17:22;10.02;;;2.90;;
25531;SDS011;13429;48.816;9.118;2022-08-01T09:19:49;4.57;;;3.20;;
25531;SDS011;13429;48.816;9.118;2022-08-01T09:22:20;5.15;;;2.45;;
25531;SDS011;13429;48.816;9.118;2022-08-01T09:25:00;3.78;;;2.17;;
25531;SDS011;13429;48.816;9.118;2022-08-01T09:27:27;4.13;;;2.38;;
25531;SDS011;13429;48.816;9.118;2022-08-01T09:29:53;4.32;;;2.85;;
25531;SDS011;13429;48.816;9.118;2022-08-01T09:32:20;4.95;;;2.50;;
25531;SDS011;13429;48.816;9.118;2022-08-01T09:34:46;4.82;;;2.88;;
25531;SDS011;13429;48.816;9.118;2022-08-01T09:37:12;4.90;;;2.75;;
25531;SDS011;13429;48.816;9.118;2022-08-01T09:39:42;4.15;;;2.67;;
25531;SDS011;13429;48.816;9.118;2022-08-01T09:42:23;4.95;;;2.58;;
25531;SDS011;13429;48.816;9.118;2022-08-01T09:44:50;3.67;;;3.13;;
25531;SDS011;13429;48.816;9.118;2022-08-01T09:47:16;7.43;;;3.33;;
25531;SDS011;13429;48.816;9.118;2022-08-01T09:49:45;5.60;;;3.08;;
25531;SDS011;13429;48.816;9.118;2022-08-01T09:52:19;4.88;;;3.38;;
25531;SDS011;13429;48.816;9.118;2022-08-01T09:54:56;4.13;;;3.40;;
25531;SDS011;13429;48.816;9.118;2022-08-01T09:57:23;4.28;;;3.17;;
25531;SDS011;13429;48.816;9.118;2022-08-01T09:59:50;4.55;;;3.42;;
25531;SDS011;13429;48.816;9.118;2022-08-01T10:02:27;6.10;;;3.47;;
25531;SDS011;13429;48.816;9.118;2022-08-01T10:04:53;4.65;;;2.83;;
25531;SDS011;13429;48.816;9.118;2022-08-01T10:07:19;4.07;;;3.10;;
25531;SDS011;13429;48.816;9.118;2022-08-01T10:09:46;5.15;;;2.80;;
25531;SDS011;13429;48.816;9.118;2022-08-01T10:12:16;3.13;;;2.22;;
25531;SDS011;13429;48.816;9.118;2022-08-01T10:14:43;4.07;;;2.38;;
25531;SDS011;13429;48.816;9.118;2022-08-01T10:17:11;6.20;;;1.98;;
25531;SDS011;13429;48.816;9.118;2022-08-01T10:19:37;4.22;;;2.30;;
25531;SDS011;13429;48.816;9.118;2022-08-01T10:22:07;2.38;;;1.92;;
25531;SDS011;13429;48.816;9.118;2022-08-01T10:24:35;2.40;;;2.20;;
25531;SDS011;13429;48.816;9.118;2022-08-01T10:27:03;3.35;;;2.00;;
25531;SDS011;13429;48.816;9.118;2022-08-01T10:29:31;3.47;;;2.35;;
25531;SDS011;13429;48.816;9.118;2022-08-01T10:32:01;6.15;;;2.50;;
25531;SDS011;13429;48.816;9.118;2022-08-01T10:34:28;4.18;;;2.47;;
25531;SDS011;13429;48.816;9.118;2022-08-01T10:36:55;2.85;;;2.05;;
25531;SDS011;13429;48.816;9.118;2022-08-01T10:39:21;3.35;;;2.33;;
25531;SDS011;13429;48.816;9.118;2022-08-01T10:41:48;3.20;;;2.90;;
25531;SDS011;13429;48.816;9.118;2022-08-01T10:44:14;3.58;;;3.00;;
25531;SDS011;13429;48.816;9.118;2022-08-01T10:46:48;4.07;;;2.80;;
25531;SDS011;13429;48.816;9.118;2022-08-01T10:49:16;4.25;;;2.88;;
25531;SDS011;13429;48.816;9.118;2022-08-01T10:51:43;3.75;;;2.33;;
25531;SDS011;13429;48.816;9.118;2022-08-01T10:54:10;2.90;;;2.40;;
25531;SDS011;13429;48.816;9.118;2022-08-01T10:56:45;11.98;;;3.40;;
25531;SDS011;13429;48.816;9.118;2022-08-01T10:59:21;4.20;;;3.03;;
25531;SDS011;13429;48.816;9.118;2022-08-01T11:04:31;2.80;;;2.50;;
25531;SDS011;13429;48.816;9.118;2022-08-01T11:09:31;3.05;;;2.65;;
25531;SDS011;13429;48.816;9.118;2022-08-01T11:22:30;6.13;;;2.30;;
25531;SDS011;13429;48.816;9.118;2022-08-01T11:24:56;4.25;;;1.90;;
25531;SDS011;13429;48.816;9.118;2022-08-01T11:27:31;2.45;;;2.13;;
25531;SDS011;13429;48.816;9.118;2022-08-01T11:32:49;3.90;;;2.83;;
25531;SDS011;13429;48.816;9.118;2022-08-01T11:35:15;3.88;;;2.30;;
25531;SDS011;13429;48.816;9.118;2022-08-01T11:37:41;5.88;;;2.38;;
25531;SDS011;13429;48.816;9.118;2022-08-01T11:40:21;1.73;;;1.63;;
25531;SDS011;13429;48.816;9.118;2022-08-01T11:42:48;5.55;;;1.95;;
25531;SDS011;13429;48.816;9.118;2022-08-01T11:45:14;5.15;;;2.00;;
25531;SDS011;13429;48.816;9.118;2022-08-01T11:47:44;2.45;;;2.00;;
25531;SDS011;13429;48.816;9.118;2022-08-01T11:52:37;3.45;;;2.13;;
25531;SDS011;13429;48.816;9.118;2022-08-01T11:55:07;3.88;;;2.45;;
25531;SDS011;13429;48.816;9.118;2022-08-01T11:57:34;2.70;;;1.80;;
25531;SDS011;13429;48.816;9.118;2022-08-01T12:02:37;2.28;;;1.92;;
25531;SDS011;13429;48.816;9.118;2022-08-01T12:05:05;6.78;;;2.10;;
25531;SDS011;13429;48.816;9.118;2022-08-01T12:07:32;4.20;;;2.15;;
25531;SDS011;13429;48.816;9.118;2022-08-01T12:10:08;4.32;;;2.25;;
25531;SDS011;13429;48.816;9.118;2022-08-01T12:12:35;5.60;;;2.13;;
25531;SDS011;13429;48.816;9.118;2022-08-01T12:15:03;9.70;;;2.58;;
25531;SDS011;13429;48.816;9.118;2022-08-01T12:17:31;2.90;;;2.03;;
25531;SDS011;13429;48.816;9.118;2022-08-01T12:19:57;3.63;;;2.40;;
25531;SDS011;13429;48.816;9.118;2022-08-01T12:22:23;2.03;;;1.83;;
25531;SDS011;13429;48.816;9.118;2022-08-01T12:24:50;6.20;;;2.50;;
25531;SDS011;13429;48.816;9.118;2022-08-01T12:27:26;4.55;;;2.30;;
25531;SDS011;13429;48.816;9.118;2022-08-01T12:29:52;6.15;;;1.95;;
25531;SDS011;13429;48.816;9.118;2022-08-01T12:32:34;4.03;;;2.40;;
25531;SDS011;13429;48.816;9.118;2022-08-01T12:35:05;4.43;;;2.17;;
25531;SDS011;13429;48.816;9.118;2022-08-01T12:39:57;3.35;;;2.42;;
25531;SDS011;13429;48.816;9.118;2022-08-01T12:42:24;2.92;;;1.80;;
25531;SDS011;13429;48.816;9.118;2022-08-01T12:44:51;2.30;;;1.90;;
25531;SDS011;13429;48.816;9.118;2022-08-01T12:47:17;3.80;;;2.15;;
25531;SDS011;13429;48.816;9.118;2022-08-01T12:49:45;5.20;;;2.10;;
25531;SDS011;13429;48.816;9.118;2022-08-01T12:52:12;2.60;;;1.85;;
25531;SDS011;13429;48.816;9.118;2022-08-01T12:57:23;4.40;;;1.75;;
25531;SDS011;13429;48.816;9.118;2022-08-01T12:59:52;6.68;;;1.77;;
25531;SDS011;13429;48.816;9.118;2022-08-01T13:02:18;6.43;;;1.98;;
25531;SDS011;13429;48.816;9.118;2022-08-01T13:04:50;4.25;;;1.83;;
25531;SDS011;13429;48.816;9.118;2022-08-01T13:07:17;2.88;;;1.90;;
25531;SDS011;13429;48.816;9.118;2022-08-01T13:09:49;4.03;;;1.90;;
25531;SDS011;13429;48.816;9.118;2022-08-01T13:12:15;2.13;;;1.52;;
25531;SDS011;13429;48.816;9.118;2022-08-01T13:14:43;3.53;;;1.92;;
25531;SDS011;13429;48.816;9.118;2022-08-01T13:17:09;3.03;;;1.60;;
25531;SDS011;13429;48.816;9.118;2022-08-01T13:19:41;2.40;;;1.45;;
25531;SDS011;13429;48.816;9.118;2022-08-01T13:22:08;2.67;;;1.50;;
25531;SDS011;13429;48.816;9.118;2022-08-01T13:24:34;3.08;;;1.70;;
25531;SDS011;13429;48.816;9.118;2022-08-01T13:27:01;2.40;;;1.33;;
25531;SDS011;13429;48.816;9.118;2022-08-01T13:29:37;3.08;;;1.63;;
25531;SDS011;13429;48.816;9.118;2022-08-01T13:32:19;2.85;;;1.50;;
25531;SDS011;13429;48.816;9.118;2022-08-01T13:34:46;4.28;;;2.08;;
25531;SDS011;13429;48.816;9.118;2022-08-01T13:37:12;3.20;;;1.95;;
25531;SDS011;13429;48.816;9.118;2022-08-01T13:39:38;5.13;;;1.90;;
25531;SDS011;13429;48.816;9.118;2022-08-01T13:44:34;4.40;;;1.85;;
25531;SDS011;13429;48.816;9.118;2022-08-01T13:47:01;3.00;;;1.83;;
25531;SDS011;13429;48.816;9.118;2022-08-01T13:49:27;2.75;;;1.67;;
25531;SDS011;13429;48.816;9.118;2022-08-01T13:51:53;5.38;;;1.70;;
25531;SDS011;13429;48.816;9.118;2022-08-01T13:54:19;4.40;;;1.63;;
25531;SDS011;13429;48.816;9.118;2022-08-01T13:56:45;1.98;;;1.70;;
25531;SDS011;13429;48.816;9.118;2022-08-01T13:59:12;3.03;;;1.70;;
25531;SDS011;13429;48.816;9.118;2022-08-01T14:01:38;4.47;;;2.13;;
25531;SDS011;13429;48.816;9.118;2022-08-01T14:04:04;4.28;;;1.70;;
25531;SDS011;13429;48.816;9.118;2022-08-01T14:06:31;2.17;;;1.70;;
25531;SDS011;13429;48.816;9.118;2022-08-01T14:08:57;3.42;;;2.15;;
25531;SDS011;13429;48.816;9.118;2022-08-01T14:11:23;5.13;;;1.83;;
25531;SDS011;13429;48.816;9.118;2022-08-01T14:13:49;15.32;;;2.00;;
25531;SDS011;13429;48.816;9.118;2022-08-01T14:16:16;7.22;;;1.77;;
25531;SDS011;13429;48.816;9.118;2022-08-01T14:18:42;5.57;;;1.90;;
25531;SDS011;13429;48.816;9.118;2022-08-01T14:21:08;2.72;;;1.75;;
25531;SDS011;13429;48.816;9.118;2022-08-01T14:23:34;2.10;;;1.60;;
25531;SDS011;13429;48.816;9.118;2022-08-01T14:26:00;4.88;;;2.08;;
25531;SDS011;13429;48.816;9.118;2022-08-01T14:28:26;4.43;;;2.00;;
25531;SDS011;13429;48.816;9.118;2022-08-01T14:30:53;3.40;;;1.50;;
25531;SDS011;13429;48.816;9.118;2022-08-01T14:33:20;6.22;;;2.25;;
25531;SDS011;13429;48.816;9.118;2022-08-01T14:35:46;3.20;;;1.73;;
25531;SDS011;13429;48.816;9.118;2022-08-01T14:38:13;2.50;;;1.85;;
25531;SDS011;13429;48.816;9.118;2022-08-01T14:40:38;2.40;;;1.65;;
25531;SDS011;13429;48.816;9.118;2022-08-01T14:43:05;5.60;;;2.17;;
25531;SDS011;13429;48.816;9.118;2022-08-01T14:45:31;3.25;;;1.48;;
25531;SDS011;13429;48.816;9.118;2022-08-01T14:47:58;1.80;;;1.40;;
25531;SDS011;13429;48.816;9.118;2022-08-01T14:50:24;2.58;;;1.55;;
25531;SDS011;13429;48.816;9.118;2022-08-01T14:52:53;12.13;;;1.75;;
25531;SDS011;13429;48.816;9.118;2022-08-01T14:55:19;3.47;;;1.52;;
25531;SDS011;13429;48.816;9.118;2022-08-01T14:57:48;4.38;;;1.58;;
25531;SDS011;13429;48.816;9.118;2022-08-01T15:00:15;3.20;;;1.70;;
25531;SDS011;13429;48.816;9.118;2022-08-01T15:02:41;1.85;;;1.40;;
25531;SDS011;13429;48.816;9.118;2022-08-01T15:05:07;2.35;;;1.60;;
25531;SDS011;13429;48.816;9.118;2022-08-01T15:07:34;4.25;;;1.55;;
25531;SDS011;13429;48.816;9.118;2022-08-01T15:10:00;5.63;;;2.20;;
25531;SDS011;13429;48.816;9.118;2022-08-01T15:12:26;3.70;;;2.10;;
25531;SDS011;13429;48.816;9.118;2022-08-01T15:14:52;5.65;;;2.53;;
25531;SDS011;13429;48.816;9.118;2022-08-01T15:17:19;3.00;;;1.63;;
25531;SDS011;13429;48.816;9.118;2022-08-01T15:19:46;1.77;;;1.38;;
25531;SDS011;13429;48.816;9.118;2022-08-01T15:22:12;1.85;;;1.40;;
25531;SDS011;13429;48.816;9.118;2022-08-01T15:24:38;3.60;;;1.30;;
25531;SDS011;13429;48.816;9.118;2022-08-01T15:27:04;2.05;;;1.23;;
25531;SDS011;13429;48.816;9.118;2022-08-01T15:29:30;3.60;;;1.77;;
25531;SDS011;13429;48.816;9.118;2022-08-01T15:31:58;2.95;;;1.58;;
25531;SDS011;13429;48.816;9.118;2022-08-01T15:34:24;3.22;;;1.63;;
25531;SDS011;13429;48.816;9.118;2022-08-01T15:36:50;1.98;;;1.40;;